createdAt,value
2022-10-05T04:18:58.280Z,101489.22
2022-10-05T04:22:25.722Z,101499.66
2022-10-05T04:26:04.357Z,101499.41
2022-10-05T04:29:13.840Z,101499.28
2022-10-05T04:32:30.027Z,101501.94
2022-10-05T04:35:37.419Z,101482.78
2022-10-05T04:38:58.491Z,101495.66
2022-10-05T04:42:10.552Z,101499.66
2022-10-05T04:45:35.146Z,101503.63
2022-10-05T04:49:02.558Z,101500.44
2022-10-05T04:52:28.240Z,101500.44
2022-10-05T04:56:16.506Z,101497.41
2022-10-05T04:59:38.459Z,101493.53
2022-10-05T05:03:02.988Z,101494.00
2022-10-05T05:06:20.011Z,101495.94
2022-10-05T05:09:52.458Z,101496.88
2022-10-05T05:13:06.911Z,101502.88
2022-10-05T05:16:35.827Z,101494.47
2022-10-05T05:20:01.951Z,101494.97
2022-10-05T05:23:10.335Z,101494.50
2022-10-05T05:26:29.978Z,101498.66
2022-10-05T05:30:02.248Z,101496.00
2022-10-05T05:33:08.809Z,101502.44
2022-10-05T05:36:30.942Z,101497.47
2022-10-05T05:39:54.807Z,101496.59
2022-10-05T05:43:19.935Z,101513.62
2022-10-05T05:46:51.206Z,101520.66
2022-10-05T05:50:20.039Z,101520.53
2022-10-05T05:53:40.972Z,101529.03
2022-10-05T05:56:51.564Z,101538.81
2022-10-05T06:00:00.497Z,101548.03
2022-10-05T06:03:22.788Z,101551.84
2022-10-05T06:06:31.131Z,101553.62
2022-10-05T06:09:56.660Z,101563.56
2022-10-05T06:13:06.607Z,101573.72
2022-10-05T06:16:35.049Z,101585.28
2022-10-05T06:19:40.189Z,101594.16
2022-10-05T06:22:48.445Z,101597.38
2022-10-05T06:26:21.961Z,101612.06
2022-10-05T06:29:54.875Z,101610.53
2022-10-05T06:33:05.964Z,101599.25
2022-10-05T06:36:32.819Z,101603.69
2022-10-05T06:40:03.022Z,101611.94
2022-10-05T06:43:26.158Z,101613.09
2022-10-05T06:46:41.606Z,101612.56
2022-10-05T06:49:58.946Z,101604.06
2022-10-05T06:53:11.453Z,101617.56
2022-10-05T06:56:22.659Z,101617.72
2022-10-05T06:59:39.897Z,101620.09
2022-10-05T07:02:52.368Z,101631.56
2022-10-05T07:06:20.784Z,101639.50
2022-10-05T07:09:35.785Z,101643.03
2022-10-05T07:12:50.903Z,101639.63
2022-10-05T07:16:41.779Z,101630.37
2022-10-05T07:20:06.323Z,101625.84
2022-10-05T07:23:27.412Z,101624.13
2022-10-05T07:26:49.435Z,101623.53
2022-10-05T07:30:03.434Z,101636.19
2022-10-05T07:33:21.036Z,101642.50
2022-10-05T07:37:21.011Z,101643.16
2022-10-05T07:40:38.136Z,101639.56
2022-10-05T07:44:01.133Z,101632.78
2022-10-05T07:47:31.788Z,101628.78
2022-10-05T07:50:51.786Z,101630.31
2022-10-05T07:54:25.148Z,101623.41
2022-10-05T07:57:39.717Z,101623.69
2022-10-05T08:01:00.463Z,101633.25
2022-10-05T08:04:37.036Z,101640.19
2022-10-05T08:07:43.869Z,101645.41
2022-10-05T08:11:04.985Z,101646.69
2022-10-05T08:14:39.958Z,101629.84
2022-10-05T08:17:52.812Z,101622.44
2022-10-05T08:20:58.545Z,101611.62
2022-10-05T08:24:18.379Z,101604.03
2022-10-05T08:27:26.563Z,101601.56
2022-10-05T08:30:33.204Z,101595.31
2022-10-05T08:34:02.024Z,101591.09
2022-10-05T08:37:18.133Z,101600.56
2022-10-05T08:40:51.843Z,101593.19
2022-10-05T08:44:00.664Z,101587.72
2022-10-05T08:47:09.087Z,101588.66
2022-10-05T08:50:31.189Z,101586.91
2022-10-05T08:54:04.868Z,101593.28
2022-10-05T08:57:22.661Z,101591.19
2022-10-05T09:00:40.581Z,101586.03
2022-10-05T09:04:14.127Z,101588.03
2022-10-05T09:07:36.571Z,101595.56
2022-10-05T09:11:00.845Z,101604.53
2022-10-05T09:14:06.474Z,101610.75
2022-10-05T09:17:28.281Z,101609.47
2022-10-05T09:20:53.868Z,101623.19
2022-10-05T09:24:14.302Z,101609.59
2022-10-05T09:27:18.272Z,101616.28
2022-10-05T09:30:31.874Z,101609.94
2022-10-05T09:33:53.184Z,101609.34
2022-10-05T09:37:38.515Z,101605.72
2022-10-05T09:40:57.500Z,101612.00
2022-10-05T09:44:18.883Z,101612.87
2022-10-05T09:47:36.872Z,101602.72
2022-10-05T09:51:04.621Z,101598.97
2022-10-05T09:54:51.980Z,101603.41
2022-10-05T09:58:28.495Z,101605.44
2022-10-05T10:01:59.054Z,101596.44
2022-10-05T10:05:05.868Z,101596.97
2022-10-05T10:08:35.871Z,101596.31
2022-10-05T10:11:54.269Z,101597.72
2022-10-05T10:15:34.810Z,101593.44
2022-10-05T10:19:08.673Z,101597.22
2022-10-05T10:22:30.651Z,101603.72
2022-10-05T10:26:05.264Z,101604.97
2022-10-05T10:29:20.100Z,101594.97
2022-10-05T10:33:00.943Z,101592.87
2022-10-05T10:36:33.960Z,101588.94
2022-10-05T10:40:14.669Z,101594.91
2022-10-05T10:43:35.922Z,101583.50
2022-10-05T10:46:59.637Z,101598.09
2022-10-05T10:50:34.625Z,101599.22
2022-10-05T10:54:05.455Z,101596.25
2022-10-05T10:57:23.843Z,101599.31
2022-10-05T11:00:57.102Z,101599.00
2022-10-05T11:04:18.473Z,101594.97
2022-10-05T11:07:27.030Z,101589.91
2022-10-05T11:10:59.571Z,101587.81
2022-10-05T11:14:33.724Z,101592.59
2022-10-05T11:17:58.259Z,101589.13
2022-10-05T11:21:17.627Z,101581.91
2022-10-05T11:24:34.671Z,101580.00
2022-10-05T11:27:46.633Z,101588.12
2022-10-05T11:31:13.359Z,101580.13
2022-10-05T11:34:58.501Z,101572.59
2022-10-05T11:38:31.653Z,101561.38
2022-10-05T11:42:04.449Z,101556.41
2022-10-05T11:45:39.984Z,101557.22
2022-10-05T11:48:47.299Z,101554.09
2022-10-05T11:51:50.005Z,101551.13
2022-10-05T11:55:11.008Z,101548.87
2022-10-05T11:58:28.337Z,101548.78
2022-10-05T12:01:49.937Z,101534.19
2022-10-05T12:05:16.479Z,101536.50
2022-10-05T12:08:18.962Z,101523.81
2022-10-05T12:11:46.574Z,101528.00
2022-10-05T12:15:13.826Z,101534.72
2022-10-05T12:18:16.642Z,101533.88
2022-10-05T12:21:37.594Z,101533.94
2022-10-05T12:25:06.288Z,101532.16
2022-10-05T12:28:15.617Z,101532.78
2022-10-05T12:31:41.528Z,101525.03
2022-10-05T12:34:48.645Z,101520.00
2022-10-05T12:38:10.428Z,101515.34
2022-10-05T12:41:36.914Z,101506.59
2022-10-05T12:44:49.181Z,101494.03
2022-10-05T12:48:25.187Z,101485.97
2022-10-05T12:52:00.923Z,101495.78
2022-10-05T12:55:21.785Z,101497.38
2022-10-05T12:58:33.394Z,101476.50
2022-10-05T13:02:17.770Z,101482.81
2022-10-05T13:05:30.132Z,101489.53
2022-10-05T13:08:32.590Z,101493.41
2022-10-05T13:11:49.504Z,101498.50
2022-10-05T13:15:22.682Z,101490.09
2022-10-05T13:18:36.127Z,101495.13
2022-10-05T13:22:04.743Z,101488.59
2022-10-05T13:25:13.470Z,101483.72
2022-10-05T13:28:21.995Z,101484.22
2022-10-05T13:31:29.050Z,101485.19
2022-10-05T13:34:43.403Z,101482.62
2022-10-05T13:37:49.441Z,101482.94
2022-10-05T13:41:04.429Z,101474.94
2022-10-05T13:44:21.396Z,101474.81
2022-10-05T13:47:40.478Z,101475.66
2022-10-05T13:51:24.192Z,101466.75
2022-10-05T13:54:32.814Z,101472.66
2022-10-05T13:57:45.211Z,101470.56
2022-10-05T14:00:57.884Z,101481.28
2022-10-05T14:04:09.971Z,101471.63
2022-10-05T14:07:35.023Z,101480.00
2022-10-05T14:10:43.788Z,101480.00
2022-10-05T14:13:48.085Z,101479.56
2022-10-05T14:16:56.443Z,101477.66
2022-10-05T14:20:03.109Z,101483.53
2022-10-05T14:23:18.433Z,101481.47
2022-10-05T14:26:25.465Z,101478.72
2022-10-05T14:29:36.477Z,101479.16
2022-10-05T14:32:57.363Z,101473.87
2022-10-05T14:36:00.652Z,101470.97
2022-10-05T14:39:05.185Z,101478.69
2022-10-05T14:42:18.193Z,101473.19
2022-10-05T14:45:23.614Z,101483.91
2022-10-05T14:48:28.757Z,101476.25
2022-10-05T14:51:32.308Z,101483.97
2022-10-05T14:54:53.854Z,101479.69
2022-10-05T14:58:05.812Z,101473.91
2022-10-05T15:01:26.283Z,101465.69
2022-10-05T15:04:42.892Z,101465.00
2022-10-05T15:07:51.206Z,101452.06
2022-10-05T15:11:03.226Z,101444.50
2022-10-05T15:14:15.985Z,101451.56
2022-10-05T15:17:23.588Z,101456.50
2022-10-05T15:20:46.568Z,101460.91
2022-10-05T15:24:04.982Z,101458.94
2022-10-05T15:27:23.947Z,101459.66
2022-10-05T15:30:27.765Z,101456.41
2022-10-05T15:33:46.373Z,101447.09
2022-10-05T15:37:07.961Z,101443.00
2022-10-05T15:40:22.383Z,101441.91
2022-10-05T15:43:30.914Z,101443.44
2022-10-05T15:46:43.690Z,101448.13
2022-10-05T15:50:13.627Z,101438.25
2022-10-05T15:53:19.907Z,101446.28
2022-10-05T15:56:38.379Z,101448.38
